Weather at Laurence G Hanscom Field

Public forecast

Using degrees Fahrenheit for public forecast. Weather courtesy of forecast.io.

Current aviation weather report (METAR) for Laurence G Hanscom Field

Report is more than 6 hours old.

Retrieved 2022/09/17 18:51 UTC (20 days ago):

KBED 171851Z 22003KT 10SM CLR 21/05 A3022 RMK AO2 SLP246 T02060050

Aviation forecast (TAF) for Laurence G Hanscom Field

Forecast is more than 12 hours old.

Retrieved 2022/09/17 18:22 UTC (20 days ago):

TAF KBED 171720Z 1718/1818 19004KT P6SM FEW220 FM180800 23006KT P6SM FEW220 FM181500 26010G18KT P6SM SCT150